sensor_id;sensor_type;location;lat;lon;timestamp;temperature;humidity
18126;DHT22;53956;52.442;13.284;2023-05-23T00:02:13;22.40;55.60
18126;DHT22;53956;52.442;13.284;2023-05-23T00:04:40;22.30;55.90
18126;DHT22;53956;52.442;13.284;2023-05-23T00:07:09;22.40;56.20
18126;DHT22;53956;52.442;13.284;2023-05-23T00:09:35;22.30;56.30
18126;DHT22;53956;52.442;13.284;2023-05-23T00:12:04;22.30;56.50
18126;DHT22;53956;52.442;13.284;2023-05-23T00:14:31;22.00;56.70
18126;DHT22;53956;52.442;13.284;2023-05-23T00:16:59;22.10;56.70
18126;DHT22;53956;52.442;13.284;2023-05-23T00:19:26;22.20;57.00
18126;DHT22;53956;52.442;13.284;2023-05-23T00:21:53;22.40;56.40
18126;DHT22;53956;52.442;13.284;2023-05-23T00:24:23;22.50;56.30
18126;DHT22;53956;52.442;13.284;2023-05-23T00:26:50;22.10;57.00
18126;DHT22;53956;52.442;13.284;2023-05-23T00:29:18;22.30;57.90
18126;DHT22;53956;52.442;13.284;2023-05-23T00:31:45;22.40;57.20
18126;DHT22;53956;52.442;13.284;2023-05-23T00:34:13;22.00;56.90
18126;DHT22;53956;52.442;13.284;2023-05-23T00:36:40;22.30;57.30
18126;DHT22;53956;52.442;13.284;2023-05-23T00:39:08;22.20;57.60
18126;DHT22;53956;52.442;13.284;2023-05-23T00:41:43;22.20;57.30
18126;DHT22;53956;52.442;13.284;2023-05-23T00:44:10;22.20;57.70
18126;DHT22;53956;52.442;13.284;2023-05-23T00:46:38;22.00;58.00
18126;DHT22;53956;52.442;13.284;2023-05-23T00:49:05;21.90;58.30
18126;DHT22;53956;52.442;13.284;2023-05-23T00:51:32;22.10;58.00
18126;DHT22;53956;52.442;13.284;2023-05-23T00:54:01;22.10;57.90
18126;DHT22;53956;52.442;13.284;2023-05-23T00:56:31;22.10;57.80
18126;DHT22;53956;52.442;13.284;2023-05-23T00:58:58;22.10;58.30
18126;DHT22;53956;52.442;13.284;2023-05-23T01:01:25;22.00;58.40
18126;DHT22;53956;52.442;13.284;2023-05-23T01:03:53;22.00;58.40
18126;DHT22;53956;52.442;13.284;2023-05-23T01:06:21;21.90;58.60
18126;DHT22;53956;52.442;13.284;2023-05-23T01:08:47;22.00;58.70
18126;DHT22;53956;52.442;13.284;2023-05-23T01:11:21;22.00;58.70
18126;DHT22;53956;52.442;13.284;2023-05-23T01:13:56;22.10;59.40
18126;DHT22;53956;52.442;13.284;2023-05-23T01:16:31;22.20;58.90
18126;DHT22;53956;52.442;13.284;2023-05-23T01:19:05;21.90;58.70
18126;DHT22;53956;52.442;13.284;2023-05-23T01:21:37;21.80;59.00
18126;DHT22;53956;52.442;13.284;2023-05-23T01:24:25;22.00;58.70
18126;DHT22;53956;52.442;13.284;2023-05-23T01:27:07;21.90;59.00
18126;DHT22;53956;52.442;13.284;2023-05-23T01:29:38;21.80;59.30
18126;DHT22;53956;52.442;13.284;2023-05-23T01:32:10;21.90;59.00
18126;DHT22;53956;52.442;13.284;2023-05-23T01:34:39;21.80;59.10
18126;DHT22;53956;52.442;13.284;2023-05-23T01:37:10;21.80;59.00
18126;DHT22;53956;52.442;13.284;2023-05-23T01:39:39;21.80;59.40
18126;DHT22;53956;52.442;13.284;2023-05-23T01:42:06;21.80;59.20
18126;DHT22;53956;52.442;13.284;2023-05-23T01:44:34;21.70;59.70
18126;DHT22;53956;52.442;13.284;2023-05-23T01:47:04;21.90;60.20
18126;DHT22;53956;52.442;13.284;2023-05-23T01:49:33;22.00;59.80
18126;DHT22;53956;52.442;13.284;2023-05-23T01:52:00;22.00;59.30
18126;DHT22;53956;52.442;13.284;2023-05-23T01:54:28;22.10;59.30
18126;DHT22;53956;52.442;13.284;2023-05-23T01:56:56;22.10;58.90
18126;DHT22;53956;52.442;13.284;2023-05-23T01:59:23;22.10;59.10
18126;DHT22;53956;52.442;13.284;2023-05-23T02:01:50;22.00;60.00
18126;DHT22;53956;52.442;13.284;2023-05-23T02:04:20;22.00;59.90
18126;DHT22;53956;52.442;13.284;2023-05-23T02:06:46;22.10;59.80
18126;DHT22;53956;52.442;13.284;2023-05-23T02:09:13;22.10;60.40
18126;DHT22;53956;52.442;13.284;2023-05-23T02:11:41;22.20;59.80
18126;DHT22;53956;52.442;13.284;2023-05-23T02:14:08;22.00;59.40
18126;DHT22;53956;52.442;13.284;2023-05-23T02:16:35;21.90;59.10
18126;DHT22;53956;52.442;13.284;2023-05-23T02:19:03;21.90;59.30
18126;DHT22;53956;52.442;13.284;2023-05-23T02:21:31;21.90;60.50
18126;DHT22;53956;52.442;13.284;2023-05-23T02:23:58;22.00;60.10
18126;DHT22;53956;52.442;13.284;2023-05-23T02:26:24;22.00;60.80
18126;DHT22;53956;52.442;13.284;2023-05-23T02:28:52;21.90;60.70
18126;DHT22;53956;52.442;13.284;2023-05-23T02:31:18;22.00;61.10
18126;DHT22;53956;52.442;13.284;2023-05-23T02:33:45;22.00;60.70
18126;DHT22;53956;52.442;13.284;2023-05-23T02:36:12;22.00;60.90
18126;DHT22;53956;52.442;13.284;2023-05-23T02:38:40;22.10;60.70
18126;DHT22;53956;52.442;13.284;2023-05-23T02:41:07;22.10;60.50
18126;DHT22;53956;52.442;13.284;2023-05-23T02:43:33;22.00;61.10
18126;DHT22;53956;52.442;13.284;2023-05-23T02:46:00;21.90;60.80
18126;DHT22;53956;52.442;13.284;2023-05-23T02:48:27;21.90;61.00
18126;DHT22;53956;52.442;13.284;2023-05-23T02:50:54;21.90;61.00
18126;DHT22;53956;52.442;13.284;2023-05-23T02:53:20;21.90;61.10
18126;DHT22;53956;52.442;13.284;2023-05-23T02:55:49;21.90;61.20
18126;DHT22;53956;52.442;13.284;2023-05-23T02:58:15;21.90;61.20
18126;DHT22;53956;52.442;13.284;2023-05-23T03:00:43;21.90;61.40
18126;DHT22;53956;52.442;13.284;2023-05-23T03:03:09;21.90;61.20
18126;DHT22;53956;52.442;13.284;2023-05-23T03:05:37;22.00;61.20
18126;DHT22;53956;52.442;13.284;2023-05-23T03:08:03;21.90;61.40
18126;DHT22;53956;52.442;13.284;2023-05-23T03:10:31;21.80;61.60
18126;DHT22;53956;52.442;13.284;2023-05-23T03:12:59;21.90;62.40
18126;DHT22;53956;52.442;13.284;2023-05-23T03:15:25;21.90;63.00
18126;DHT22;53956;52.442;13.284;2023-05-23T03:17:52;21.90;63.30
18126;DHT22;53956;52.442;13.284;2023-05-23T03:20:19;21.90;63.90
18126;DHT22;53956;52.442;13.284;2023-05-23T03:22:46;21.90;64.30
18126;DHT22;53956;52.442;13.284;2023-05-23T03:25:14;22.00;64.50
18126;DHT22;53956;52.442;13.284;2023-05-23T03:27:41;21.80;64.40
18126;DHT22;53956;52.442;13.284;2023-05-23T03:30:10;21.80;63.90
18126;DHT22;53956;52.442;13.284;2023-05-23T03:32:37;21.70;65.00
18126;DHT22;53956;52.442;13.284;2023-05-23T03:35:04;21.60;65.70
18126;DHT22;53956;52.442;13.284;2023-05-23T03:37:31;21.80;66.50
18126;DHT22;53956;52.442;13.284;2023-05-23T03:39:58;21.50;64.80
18126;DHT22;53956;52.442;13.284;2023-05-23T03:42:24;21.70;64.40
18126;DHT22;53956;52.442;13.284;2023-05-23T03:44:51;21.60;64.10
18126;DHT22;53956;52.442;13.284;2023-05-23T03:47:19;21.60;63.90
18126;DHT22;53956;52.442;13.284;2023-05-23T03:49:48;21.60;64.20
18126;DHT22;53956;52.442;13.284;2023-05-23T03:52:15;21.70;64.00
18126;DHT22;53956;52.442;13.284;2023-05-23T03:54:42;21.80;64.00
18126;DHT22;53956;52.442;13.284;2023-05-23T03:57:08;21.70;64.40
18126;DHT22;53956;52.442;13.284;2023-05-23T03:59:36;21.70;64.10
18126;DHT22;53956;52.442;13.284;2023-05-23T04:02:07;21.80;64.10
18126;DHT22;53956;52.442;13.284;2023-05-23T04:04:36;21.80;64.20
18126;DHT22;53956;52.442;13.284;2023-05-23T04:07:04;21.70;64.50
18126;DHT22;53956;52.442;13.284;2023-05-23T04:09:31;21.60;64.40
18126;DHT22;53956;52.442;13.284;2023-05-23T04:11:59;21.70;64.70
18126;DHT22;53956;52.442;13.284;2023-05-23T04:14:26;21.60;65.40
18126;DHT22;53956;52.442;13.284;2023-05-23T04:16:55;21.60;65.10
18126;DHT22;53956;52.442;13.284;2023-05-23T04:19:22;21.80;64.40
18126;DHT22;53956;52.442;13.284;2023-05-23T04:21:52;21.70;64.20
18126;DHT22;53956;52.442;13.284;2023-05-23T04:24:18;21.60;64.70
18126;DHT22;53956;52.442;13.284;2023-05-23T04:26:45;21.40;64.90
18126;DHT22;53956;52.442;13.284;2023-05-23T04:29:12;21.50;65.70
18126;DHT22;53956;52.442;13.284;2023-05-23T04:31:38;21.50;65.90
18126;DHT22;53956;52.442;13.284;2023-05-23T04:34:05;21.50;66.90
18126;DHT22;53956;52.442;13.284;2023-05-23T04:36:36;21.50;65.70
18126;DHT22;53956;52.442;13.284;2023-05-23T04:39:04;21.50;67.10
18126;DHT22;53956;52.442;13.284;2023-05-23T04:41:35;21.60;68.20
18126;DHT22;53956;52.442;13.284;2023-05-23T04:44:08;21.50;65.10
18126;DHT22;53956;52.442;13.284;2023-05-23T04:46:39;21.50;66.70
18126;DHT22;53956;52.442;13.284;2023-05-23T04:49:15;21.60;67.10
18126;DHT22;53956;52.442;13.284;2023-05-23T04:51:42;21.50;67.80
18126;DHT22;53956;52.442;13.284;2023-05-23T04:54:18;21.50;67.60
18126;DHT22;53956;52.442;13.284;2023-05-23T04:56:45;21.60;67.50
18126;DHT22;53956;52.442;13.284;2023-05-23T04:59:14;21.50;68.40
18126;DHT22;53956;52.442;13.284;2023-05-23T05:01:41;21.60;67.80
18126;DHT22;53956;52.442;13.284;2023-05-23T05:04:08;21.60;67.50
18126;DHT22;53956;52.442;13.284;2023-05-23T05:06:35;21.50;68.30
18126;DHT22;53956;52.442;13.284;2023-05-23T05:09:02;21.50;68.50
18126;DHT22;53956;52.442;13.284;2023-05-23T05:11:30;21.60;68.50
18126;DHT22;53956;52.442;13.284;2023-05-23T05:13:57;21.50;67.00
18126;DHT22;53956;52.442;13.284;2023-05-23T05:16:24;21.50;67.50
18126;DHT22;53956;52.442;13.284;2023-05-23T05:18:51;21.50;67.40
18126;DHT22;53956;52.442;13.284;2023-05-23T05:21:19;21.60;67.90
18126;DHT22;53956;52.442;13.284;2023-05-23T05:23:46;21.50;68.30
18126;DHT22;53956;52.442;13.284;2023-05-23T05:26:15;21.50;67.60
18126;DHT22;53956;52.442;13.284;2023-05-23T05:28:43;21.60;68.30
18126;DHT22;53956;52.442;13.284;2023-05-23T05:31:09;21.60;69.90
18126;DHT22;53956;52.442;13.284;2023-05-23T05:33:40;21.60;72.30
18126;DHT22;53956;52.442;13.284;2023-05-23T05:36:12;21.50;73.30
18126;DHT22;53956;52.442;13.284;2023-05-23T05:38:40;21.60;74.30
18126;DHT22;53956;52.442;13.284;2023-05-23T05:41:06;21.60;75.00
18126;DHT22;53956;52.442;13.284;2023-05-23T05:43:36;21.50;75.10
18126;DHT22;53956;52.442;13.284;2023-05-23T05:46:04;21.40;75.30
18126;DHT22;53956;52.442;13.284;2023-05-23T05:48:31;21.60;75.00
18126;DHT22;53956;52.442;13.284;2023-05-23T05:51:02;21.50;75.20
18126;DHT22;53956;52.442;13.284;2023-05-23T05:53:32;21.40;74.90
18126;DHT22;53956;52.442;13.284;2023-05-23T05:55:58;21.50;75.10
18126;DHT22;53956;52.442;13.284;2023-05-23T05:58:25;21.40;74.90
18126;DHT22;53956;52.442;13.284;2023-05-23T06:00:56;21.40;75.40
18126;DHT22;53956;52.442;13.284;2023-05-23T06:03:24;21.40;73.90
18126;DHT22;53956;52.442;13.284;2023-05-23T06:05:53;21.40;75.00
18126;DHT22;53956;52.442;13.284;2023-05-23T06:08:21;21.50;75.00
18126;DHT22;53956;52.442;13.284;2023-05-23T06:10:48;21.50;75.20
18126;DHT22;53956;52.442;13.284;2023-05-23T06:13:15;21.40;75.10
18126;DHT22;53956;52.442;13.284;2023-05-23T06:15:45;21.60;75.50
18126;DHT22;53956;52.442;13.284;2023-05-23T06:18:13;21.50;75.60
18126;DHT22;53956;52.442;13.284;2023-05-23T06:20:42;21.50;75.80
18126;DHT22;53956;52.442;13.284;2023-05-23T06:23:13;21.50;75.90
18126;DHT22;53956;52.442;13.284;2023-05-23T06:25:40;21.50;76.20
18126;DHT22;53956;52.442;13.284;2023-05-23T06:28:07;21.70;75.70
18126;DHT22;53956;52.442;13.284;2023-05-23T06:30:33;22.00;75.40
18126;DHT22;53956;52.442;13.284;2023-05-23T06:33:03;22.20;75.50
18126;DHT22;53956;52.442;13.284;2023-05-23T06:35:29;22.40;74.50
18126;DHT22;53956;52.442;13.284;2023-05-23T06:37:57;23.10;72.80
18126;DHT22;53956;52.442;13.284;2023-05-23T06:40:24;23.40;70.90
18126;DHT22;53956;52.442;13.284;2023-05-23T06:42:50;23.30;71.00
18126;DHT22;53956;52.442;13.284;2023-05-23T06:45:23;23.30;69.90
18126;DHT22;53956;52.442;13.284;2023-05-23T06:47:50;23.20;70.20
18126;DHT22;53956;52.442;13.284;2023-05-23T06:50:18;23.20;69.40
18126;DHT22;53956;52.442;13.284;2023-05-23T06:52:46;23.00;69.90
18126;DHT22;53956;52.442;13.284;2023-05-23T06:55:15;23.10;69.70
18126;DHT22;53956;52.442;13.284;2023-05-23T06:57:45;23.10;70.20
18126;DHT22;53956;52.442;13.284;2023-05-23T07:00:13;23.00;70.90
18126;DHT22;53956;52.442;13.284;2023-05-23T07:02:54;23.00;70.70
18126;DHT22;53956;52.442;13.284;2023-05-23T07:05:21;23.10;69.40
18126;DHT22;53956;52.442;13.284;2023-05-23T07:07:49;23.20;68.10
18126;DHT22;53956;52.442;13.284;2023-05-23T07:10:17;23.20;68.40
18126;DHT22;53956;52.442;13.284;2023-05-23T07:12:46;23.10;68.10
18126;DHT22;53956;52.442;13.284;2023-05-23T07:15:16;23.10;67.60
18126;DHT22;53956;52.442;13.284;2023-05-23T07:17:53;23.10;66.90
18126;DHT22;53956;52.442;13.284;2023-05-23T07:20:20;23.00;67.00
18126;DHT22;53956;52.442;13.284;2023-05-23T07:22:49;23.00;67.60
18126;DHT22;53956;52.442;13.284;2023-05-23T07:25:18;22.90;68.20
18126;DHT22;53956;52.442;13.284;2023-05-23T07:27:47;23.00;68.30
18126;DHT22;53956;52.442;13.284;2023-05-23T07:30:14;22.90;68.30
18126;DHT22;53956;52.442;13.284;2023-05-23T07:32:41;23.10;68.30
18126;DHT22;53956;52.442;13.284;2023-05-23T07:35:12;23.10;68.70
18126;DHT22;53956;52.442;13.284;2023-05-23T07:37:39;23.30;67.90
18126;DHT22;53956;52.442;13.284;2023-05-23T07:40:06;23.50;66.70
18126;DHT22;53956;52.442;13.284;2023-05-23T07:42:36;23.60;64.80
18126;DHT22;53956;52.442;13.284;2023-05-23T07:45:03;23.70;65.40
18126;DHT22;53956;52.442;13.284;2023-05-23T07:47:30;23.60;65.80
18126;DHT22;53956;52.442;13.284;2023-05-23T07:49:57;23.60;65.00
18126;DHT22;53956;52.442;13.284;2023-05-23T07:52:28;23.90;65.30
18126;DHT22;53956;52.442;13.284;2023-05-23T07:54:55;24.00;65.40
18126;DHT22;53956;52.442;13.284;2023-05-23T07:57:21;24.10;64.50
18126;DHT22;53956;52.442;13.284;2023-05-23T07:59:52;24.30;63.70
18126;DHT22;53956;52.442;13.284;2023-05-23T08:02:19;24.50;64.10
18126;DHT22;53956;52.442;13.284;2023-05-23T08:04:48;24.90;63.60
18126;DHT22;53956;52.442;13.284;2023-05-23T08:07:15;24.90;64.40
18126;DHT22;53956;52.442;13.284;2023-05-23T08:09:46;24.90;65.30
18126;DHT22;53956;52.442;13.284;2023-05-23T08:12:16;25.00;65.80
18126;DHT22;53956;52.442;13.284;2023-05-23T08:14:44;25.10;66.10
18126;DHT22;53956;52.442;13.284;2023-05-23T08:17:19;24.90;66.40
18126;DHT22;53956;52.442;13.284;2023-05-23T08:19:47;24.80;66.90
18126;DHT22;53956;52.442;13.284;2023-05-23T08:22:14;25.00;67.40
18126;DHT22;53956;52.442;13.284;2023-05-23T08:24:40;25.10;66.50
18126;DHT22;53956;52.442;13.284;2023-05-23T08:27:08;25.20;66.70
18126;DHT22;53956;52.442;13.284;2023-05-23T08:29:35;25.50;66.30
18126;DHT22;53956;52.442;13.284;2023-05-23T08:32:03;25.40;65.80
18126;DHT22;53956;52.442;13.284;2023-05-23T08:34:31;25.40;65.90
18126;DHT22;53956;52.442;13.284;2023-05-23T08:36:57;25.70;65.70
18126;DHT22;53956;52.442;13.284;2023-05-23T08:39:25;25.90;65.50
18126;DHT22;53956;52.442;13.284;2023-05-23T08:42:01;25.70;66.40
18126;DHT22;53956;52.442;13.284;2023-05-23T08:44:28;25.30;66.90
18126;DHT22;53956;52.442;13.284;2023-05-23T08:47:02;25.10;68.10
18126;DHT22;53956;52.442;13.284;2023-05-23T08:49:45;25.10;68.50
18126;DHT22;53956;52.442;13.284;2023-05-23T08:52:13;25.10;68.60
18126;DHT22;53956;52.442;13.284;2023-05-23T08:54:45;25.20;68.30
18126;DHT22;53956;52.442;13.284;2023-05-23T08:57:13;25.60;68.40
18126;DHT22;53956;52.442;13.284;2023-05-23T08:59:45;25.40;71.00
18126;DHT22;53956;52.442;13.284;2023-05-23T09:02:13;25.70;69.00
18126;DHT22;53956;52.442;13.284;2023-05-23T09:04:40;25.90;69.50
18126;DHT22;53956;52.442;13.284;2023-05-23T09:07:14;25.60;70.20
18126;DHT22;53956;52.442;13.284;2023-05-23T09:09:42;25.20;71.80
18126;DHT22;53956;52.442;13.284;2023-05-23T09:12:12;25.10;71.30
18126;DHT22;53956;52.442;13.284;2023-05-23T09:14:41;25.00;72.10
18126;DHT22;53956;52.442;13.284;2023-05-23T09:17:15;25.00;73.30
18126;DHT22;53956;52.442;13.284;2023-05-23T09:19:42;25.20;73.20
18126;DHT22;53956;52.442;13.284;2023-05-23T09:22:27;25.20;74.30
18126;DHT22;53956;52.442;13.284;2023-05-23T09:25:02;25.20;74.90
18126;DHT22;53956;52.442;13.284;2023-05-23T09:27:29;25.30;73.60
18126;DHT22;53956;52.442;13.284;2023-05-23T09:29:55;24.80;75.20
18126;DHT22;53956;52.442;13.284;2023-05-23T09:32:25;24.50;76.30
18126;DHT22;53956;52.442;13.284;2023-05-23T09:34:58;24.30;78.00
18126;DHT22;53956;52.442;13.284;2023-05-23T09:37:30;24.30;78.40
18126;DHT22;53956;52.442;13.284;2023-05-23T09:39:59;24.30;78.30
18126;DHT22;53956;52.442;13.284;2023-05-23T09:42:31;24.40;79.80
18126;DHT22;53956;52.442;13.284;2023-05-23T09:44:59;24.30;79.70
18126;DHT22;53956;52.442;13.284;2023-05-23T09:47:25;24.20;80.20
18126;DHT22;53956;52.442;13.284;2023-05-23T09:49:52;24.20;80.60
18126;DHT22;53956;52.442;13.284;2023-05-23T09:52:20;24.10;80.40
18126;DHT22;53956;52.442;13.284;2023-05-23T09:54:48;24.10;81.10
18126;DHT22;53956;52.442;13.284;2023-05-23T09:57:15;24.10;81.20
18126;DHT22;53956;52.442;13.284;2023-05-23T09:59:48;24.10;81.40
18126;DHT22;53956;52.442;13.284;2023-05-23T10:02:28;24.20;81.70
18126;DHT22;53956;52.442;13.284;2023-05-23T10:05:02;24.20;82.00
18126;DHT22;53956;52.442;13.284;2023-05-23T10:07:30;24.50;82.10
18126;DHT22;53956;52.442;13.284;2023-05-23T10:10:02;24.60;81.70
18126;DHT22;53956;52.442;13.284;2023-05-23T10:12:40;24.70;81.30
18126;DHT22;53956;52.442;13.284;2023-05-23T10:15:09;24.80;81.50
18126;DHT22;53956;52.442;13.284;2023-05-23T10:17:47;24.70;81.90
18126;DHT22;53956;52.442;13.284;2023-05-23T10:20:17;24.60;81.60
18126;DHT22;53956;52.442;13.284;2023-05-23T10:22:47;24.50;82.60
18126;DHT22;53956;52.442;13.284;2023-05-23T10:25:16;24.20;83.30
18126;DHT22;53956;52.442;13.284;2023-05-23T10:27:44;23.90;84.60
18126;DHT22;53956;52.442;13.284;2023-05-23T10:30:14;23.70;85.50
18126;DHT22;53956;52.442;13.284;2023-05-23T10:32:41;23.70;85.60
18126;DHT22;53956;52.442;13.284;2023-05-23T10:35:14;23.70;86.20
18126;DHT22;53956;52.442;13.284;2023-05-23T10:37:47;23.60;87.70
18126;DHT22;53956;52.442;13.284;2023-05-23T10:40:23;23.60;86.80
18126;DHT22;53956;52.442;13.284;2023-05-23T10:42:56;23.50;88.60
18126;DHT22;53956;52.442;13.284;2023-05-23T10:45:27;23.40;88.90
18126;DHT22;53956;52.442;13.284;2023-05-23T10:47:54;23.60;88.40
18126;DHT22;53956;52.442;13.284;2023-05-23T10:50:31;23.30;88.90
18126;DHT22;53956;52.442;13.284;2023-05-23T10:52:59;23.30;88.70
18126;DHT22;53956;52.442;13.284;2023-05-23T10:55:30;23.30;88.70
18126;DHT22;53956;52.442;13.284;2023-05-23T10:58:09;23.30;88.80
18126;DHT22;53956;52.442;13.284;2023-05-23T11:00:36;23.30;88.70
18126;DHT22;53956;52.442;13.284;2023-05-23T11:03:04;23.30;89.10
18126;DHT22;53956;52.442;13.284;2023-05-23T11:05:33;23.30;88.60
18126;DHT22;53956;52.442;13.284;2023-05-23T11:08:07;23.20;88.30
18126;DHT22;53956;52.442;13.284;2023-05-23T11:10:57;23.10;89.00
18126;DHT22;53956;52.442;13.284;2023-05-23T11:13:25;23.40;88.60
18126;DHT22;53956;52.442;13.284;2023-05-23T11:15:52;23.30;88.20
18126;DHT22;53956;52.442;13.284;2023-05-23T11:18:20;23.40;87.90
18126;DHT22;53956;52.442;13.284;2023-05-23T11:20:49;23.30;88.10
18126;DHT22;53956;52.442;13.284;2023-05-23T11:23:17;23.30;89.60
18126;DHT22;53956;52.442;13.284;2023-05-23T11:25:45;23.20;90.50
18126;DHT22;53956;52.442;13.284;2023-05-23T11:28:14;23.00;91.20
18126;DHT22;53956;52.442;13.284;2023-05-23T11:30:42;23.00;91.10
18126;DHT22;53956;52.442;13.284;2023-05-23T11:33:10;23.00;92.30
18126;DHT22;53956;52.442;13.284;2023-05-23T11:35:39;23.00;91.80
18126;DHT22;53956;52.442;13.284;2023-05-23T11:38:06;23.00;92.40
18126;DHT22;53956;52.442;13.284;2023-05-23T11:40:34;23.00;91.50
18126;DHT22;53956;52.442;13.284;2023-05-23T11:43:02;22.90;91.70
18126;DHT22;53956;52.442;13.284;2023-05-23T11:45:31;23.00;91.30
18126;DHT22;53956;52.442;13.284;2023-05-23T11:47:58;23.00;91.20
18126;DHT22;53956;52.442;13.284;2023-05-23T11:50:25;22.90;91.10
18126;DHT22;53956;52.442;13.284;2023-05-23T11:52:53;22.80;91.30
18126;DHT22;53956;52.442;13.284;2023-05-23T11:55:21;23.00;91.10
18126;DHT22;53956;52.442;13.284;2023-05-23T11:57:48;23.00;91.20
18126;DHT22;53956;52.442;13.284;2023-05-23T12:00:15;22.90;91.70
18126;DHT22;53956;52.442;13.284;2023-05-23T12:02:44;22.80;91.10
18126;DHT22;53956;52.442;13.284;2023-05-23T12:05:13;22.90;91.40
18126;DHT22;53956;52.442;13.284;2023-05-23T12:07:40;23.00;91.90
18126;DHT22;53956;52.442;13.284;2023-05-23T12:10:08;22.90;91.80
18126;DHT22;53956;52.442;13.284;2023-05-23T12:12:39;23.00;91.20
18126;DHT22;53956;52.442;13.284;2023-05-23T12:15:08;23.10;91.50
18126;DHT22;53956;52.442;13.284;2023-05-23T12:17:35;23.10;90.50
18126;DHT22;53956;52.442;13.284;2023-05-23T12:20:04;23.10;90.50
18126;DHT22;53956;52.442;13.284;2023-05-23T12:22:31;23.10;91.20
18126;DHT22;53956;52.442;13.284;2023-05-23T12:24:58;23.00;92.10
18126;DHT22;53956;52.442;13.284;2023-05-23T12:27:28;23.10;91.50
18126;DHT22;53956;52.442;13.284;2023-05-23T12:30:06;23.20;90.80
18126;DHT22;53956;52.442;13.284;2023-05-23T12:32:33;23.20;90.60
18126;DHT22;53956;52.442;13.284;2023-05-23T12:35:01;23.20;90.60
18126;DHT22;53956;52.442;13.284;2023-05-23T12:37:30;23.00;90.40
18126;DHT22;53956;52.442;13.284;2023-05-23T12:39:57;23.10;90.70
18126;DHT22;53956;52.442;13.284;2023-05-23T12:42:24;23.00;90.30
18126;DHT22;53956;52.442;13.284;2023-05-23T12:44:52;23.10;89.70
18126;DHT22;53956;52.442;13.284;2023-05-23T12:47:18;23.10;89.70
18126;DHT22;53956;52.442;13.284;2023-05-23T12:49:45;23.10;89.50
18126;DHT22;53956;52.442;13.284;2023-05-23T12:52:12;23.10;89.20
18126;DHT22;53956;52.442;13.284;2023-05-23T12:54:40;23.10;88.00
18126;DHT22;53956;52.442;13.284;2023-05-23T12:57:07;23.10;88.30
18126;DHT22;53956;52.442;13.284;2023-05-23T12:59:34;23.00;88.70
18126;DHT22;53956;52.442;13.284;2023-05-23T13:02:00;22.90;88.50
18126;DHT22;53956;52.442;13.284;2023-05-23T13:04:27;23.00;87.90
18126;DHT22;53956;52.442;13.284;2023-05-23T13:06:53;23.00;88.10
18126;DHT22;53956;52.442;13.284;2023-05-23T13:09:20;23.10;87.90
18126;DHT22;53956;52.442;13.284;2023-05-23T13:11:48;23.00;88.00
18126;DHT22;53956;52.442;13.284;2023-05-23T13:14:15;22.90;88.10
18126;DHT22;53956;52.442;13.284;2023-05-23T13:16:41;23.00;88.40
18126;DHT22;53956;52.442;13.284;2023-05-23T13:19:09;23.00;88.90
18126;DHT22;53956;52.442;13.284;2023-05-23T13:21:35;22.80;89.10
18126;DHT22;53956;52.442;13.284;2023-05-23T13:24:02;22.90;89.50
18126;DHT22;53956;52.442;13.284;2023-05-23T13:26:29;22.50;90.40
18126;DHT22;53956;52.442;13.284;2023-05-23T13:28:57;22.40;91.10
18126;DHT22;53956;52.442;13.284;2023-05-23T13:31:23;22.40;90.90
18126;DHT22;53956;52.442;13.284;2023-05-23T13:33:50;22.50;91.80
18126;DHT22;53956;52.442;13.284;2023-05-23T13:36:17;22.40;91.90
18126;DHT22;53956;52.442;13.284;2023-05-23T13:38:43;22.50;92.50
18126;DHT22;53956;52.442;13.284;2023-05-23T13:41:10;22.40;92.60
18126;DHT22;53956;52.442;13.284;2023-05-23T13:43:37;22.40;93.10
18126;DHT22;53956;52.442;13.284;2023-05-23T13:46:05;22.40;92.90
18126;DHT22;53956;52.442;13.284;2023-05-23T13:48:32;22.20;93.20
18126;DHT22;53956;52.442;13.284;2023-05-23T13:50:58;22.20;93.70
18126;DHT22;53956;52.442;13.284;2023-05-23T13:53:25;22.20;94.10
18126;DHT22;53956;52.442;13.284;2023-05-23T13:55:52;22.30;93.40
18126;DHT22;53956;52.442;13.284;2023-05-23T13:58:19;22.40;92.90
18126;DHT22;53956;52.442;13.284;2023-05-23T14:00:45;22.40;93.40
18126;DHT22;53956;52.442;13.284;2023-05-23T14:03:14;22.50;93.70
18126;DHT22;53956;52.442;13.284;2023-05-23T14:05:43;22.50;93.20
18126;DHT22;53956;52.442;13.284;2023-05-23T14:08:10;22.40;93.50
18126;DHT22;53956;52.442;13.284;2023-05-23T14:10:38;22.30;93.20
18126;DHT22;53956;52.442;13.284;2023-05-23T14:13:05;22.30;93.20
18126;DHT22;53956;52.442;13.284;2023-05-23T14:15:32;22.20;93.90
18126;DHT22;53956;52.442;13.284;2023-05-23T14:17:59;22.20;93.70
18126;DHT22;53956;52.442;13.284;2023-05-23T14:20:27;22.20;94.00
18126;DHT22;53956;52.442;13.284;2023-05-23T14:22:54;22.10;93.70
18126;DHT22;53956;52.442;13.284;2023-05-23T14:25:21;22.00;94.20
18126;DHT22;53956;52.442;13.284;2023-05-23T14:27:48;22.10;94.30
18126;DHT22;53956;52.442;13.284;2023-05-23T14:30:15;22.00;95.00
18126;DHT22;53956;52.442;13.284;2023-05-23T14:32:42;22.00;95.40
18126;DHT22;53956;52.442;13.284;2023-05-23T14:35:09;21.90;95.90
18126;DHT22;53956;52.442;13.284;2023-05-23T14:37:37;21.90;95.80
18126;DHT22;53956;52.442;13.284;2023-05-23T14:40:05;22.00;96.00
18126;DHT22;53956;52.442;13.284;2023-05-23T14:42:34;21.90;96.00
18126;DHT22;53956;52.442;13.284;2023-05-23T14:45:01;22.10;95.90
18126;DHT22;53956;52.442;13.284;2023-05-23T14:47:27;22.00;95.80
18126;DHT22;53956;52.442;13.284;2023-05-23T14:49:55;22.00;96.20
18126;DHT22;53956;52.442;13.284;2023-05-23T14:52:21;21.90;96.40
18126;DHT22;53956;52.442;13.284;2023-05-23T14:54:49;21.90;97.70
18126;DHT22;53956;52.442;13.284;2023-05-23T14:57:16;21.90;98.10
18126;DHT22;53956;52.442;13.284;2023-05-23T14:59:42;21.70;99.40
18126;DHT22;53956;52.442;13.284;2023-05-23T15:02:10;21.70;99.50
18126;DHT22;53956;52.442;13.284;2023-05-23T15:04:37;21.70;99.90
18126;DHT22;53956;52.442;13.284;2023-05-23T15:07:04;21.80;99.90
18126;DHT22;53956;52.442;13.284;2023-05-23T15:09:31;21.40;99.90
18126;DHT22;53956;52.442;13.284;2023-05-23T15:11:59;21.30;99.90
18126;DHT22;53956;52.442;13.284;2023-05-23T15:14:26;21.10;99.90
18126;DHT22;53956;52.442;13.284;2023-05-23T15:16:54;21.10;99.50
18126;DHT22;53956;52.442;13.284;2023-05-23T15:19:21;21.00;99.90
18126;DHT22;53956;52.442;13.284;2023-05-23T15:21:47;20.80;99.90
18126;DHT22;53956;52.442;13.284;2023-05-23T15:24:14;21.00;99.50